Time,TemperatureF,DewpointF,PressureIn,WindDirection,WindDirectionDegrees,WindSpeedMPH,WindSpeedGustMPH,Humidity,HourlyPrecipIn,Conditions,Clouds,dailyrainin,SoftwareType,DateUTC
2013-07-02 00:02:00,70.0,69.0,29.98,SE,130,0.0,4.0,98,0.00,,,0.00,,2013-07-02 04:02:00,
2013-07-02 00:11:00,70.0,69.0,29.97,SSE,148,0.0,3.0,98,0.00,,,0.00,,2013-07-02 04:11:00,
2013-07-02 00:22:00,71.0,70.0,29.97,SSE,148,0.0,1.0,98,0.00,,,0.00,,2013-07-02 04:22:00,
2013-07-02 00:32:00,71.0,70.0,29.97,SSE,148,0.0,1.0,98,0.00,,,0.00,,2013-07-02 04:32:00,
2013-07-02 00:42:00,71.0,70.0,29.97,SSE,148,0.0,1.0,98,0.00,,,0.00,,2013-07-02 04:42:00,
2013-07-02 00:53:00,72.0,71.0,29.98,South,179,1.0,6.0,98,0.00,,,0.00,,2013-07-02 04:53:00,
2013-07-02 01:02:00,72.0,71.0,29.98,SSE,151,2.0,7.0,98,0.00,,,0.00,,2013-07-02 05:02:00,
2013-07-02 01:11:00,71.0,70.0,29.98,SSE,149,2.0,6.0,98,0.00,,,0.00,,2013-07-02 05:11:00,
2013-07-02 01:22:00,71.0,70.0,29.98,SSE,153,1.0,9.0,98,0.00,,,0.00,,2013-07-02 05:22:00,
2013-07-02 01:32:00,71.0,70.0,29.98,South,172,2.0,8.0,98,0.00,,,0.00,,2013-07-02 05:32:00,
2013-07-02 01:43:00,70.0,69.0,29.98,SE,140,1.0,8.0,98,0.00,,,0.00,,2013-07-02 05:43:00,
2013-07-02 01:53:00,70.0,69.0,29.99,South,170,3.0,8.0,98,0.00,,,0.00,,2013-07-02 05:53:00,
2013-07-02 02:02:00,70.0,69.0,29.99,South,169,1.0,5.0,98,0.00,,,0.00,,2013-07-02 06:02:00,
2013-07-02 02:34:00,71.0,70.0,29.99,SSE,166,2.0,7.0,98,0.00,,,0.00,,2013-07-02 06:34:00,
2013-07-02 02:43:00,70.0,69.0,29.99,SE,136,0.0,7.0,98,0.00,,,0.00,,2013-07-02 06:43:00,
2013-07-02 02:53:00,70.0,69.0,29.99,SE,136,0.0,7.0,98,0.00,,,0.00,,2013-07-02 06:53:00,
2013-07-02 03:01:00,70.0,69.0,29.99,SE,136,0.0,3.0,98,0.00,,,0.00,,2013-07-02 07:01:00,
2013-07-02 03:12:00,70.0,69.0,29.99,SE,136,0.0,6.0,98,0.00,,,0.00,,2013-07-02 07:12:00,
2013-07-02 03:22:00,70.0,69.0,29.99,SE,136,0.0,6.0,98,0.00,,,0.00,,2013-07-02 07:22:00,
2013-07-02 03:34:00,70.0,69.0,29.98,SE,136,0.0,2.0,98,0.00,,,0.00,,2013-07-02 07:34:00,
2013-07-02 03:44:00,70.0,69.0,29.98,South,173,0.0,7.0,98,0.00,,,0.00,,2013-07-02 07:44:00,
2013-07-02 03:53:00,70.0,69.0,29.99,South,173,0.0,1.0,98,0.00,,,0.00,,2013-07-02 07:53:00,
2013-07-02 04:02:00,70.0,69.0,29.99,South,173,0.0,0.0,98,0.00,,,0.00,,2013-07-02 08:02:00,
2013-07-02 04:22:00,70.0,69.0,29.99,South,173,0.0,0.0,98,0.00,,,0.00,,2013-07-02 08:22:00,
2013-07-02 04:33:00,70.0,69.0,29.99,South,173,0.0,1.0,98,0.00,,,0.00,,2013-07-02 08:33:00,
2013-07-02 04:53:00,70.0,69.0,29.99,South,173,0.0,0.0,98,0.00,,,0.00,,2013-07-02 08:53:00,
2013-07-02 05:02:00,70.0,69.0,30.00,South,173,0.0,0.0,98,0.00,,,0.00,,2013-07-02 09:02:00,
2013-07-02 05:11:00,70.0,69.0,30.00,South,173,0.0,0.0,98,0.00,,,0.00,,2013-07-02 09:11:00,
2013-07-02 05:23:00,70.0,69.0,30.00,South,173,0.0,1.0,98,0.00,,,0.00,,2013-07-02 09:23:00,
2013-07-02 05:33:00,70.0,69.0,30.00,South,173,0.0,1.0,98,0.00,,,0.00,,2013-07-02 09:33:00,
2013-07-02 05:52:00,70.0,69.0,30.01,SE,146,0.0,3.0,97,0.00,,,0.00,,2013-07-02 09:52:00,
2013-07-02 06:01:00,70.0,69.0,30.01,SE,146,0.0,4.0,98,0.00,,,0.00,,2013-07-02 10:01:00,
2013-07-02 06:11:00,70.0,69.0,30.01,SE,146,0.0,4.0,98,0.00,,,0.00,,2013-07-02 10:11:00,
2013-07-02 06:44:00,70.0,69.0,30.02,South,175,2.0,8.0,98,0.00,,,0.00,,2013-07-02 10:44:00,
2013-07-02 06:52:00,70.0,69.0,30.02,SSE,163,1.0,7.0,98,0.00,,,0.00,,2013-07-02 10:52:00,
2013-07-02 07:01:00,70.0,69.0,30.02,SSE,162,0.0,3.0,98,0.00,,,0.00,,2013-07-02 11:01:00,
2013-07-02 07:22:00,71.0,70.0,30.03,South,169,0.0,5.0,97,0.00,,,0.00,,2013-07-02 11:22:00,
2013-07-02 07:52:00,71.0,70.0,30.03,South,169,0.0,2.0,97,0.00,,,0.00,,2013-07-02 11:52:00,
2013-07-02 08:23:00,71.0,70.0,30.05,SE,130,0.0,4.0,97,0.00,,,0.00,,2013-07-02 12:23:00,
2013-07-02 08:52:00,71.0,70.0,30.06,SE,140,0.0,4.0,97,0.00,,,0.00,,2013-07-02 12:52:00,
2013-07-02 09:34:00,70.0,69.0,30.06,SE,133,0.0,1.0,97,0.00,,,0.00,,2013-07-02 13:34:00,
2013-07-02 09:43:00,70.0,69.0,30.05,ESE,111,1.0,5.0,96,0.00,,,0.00,,2013-07-02 13:43:00,
2013-07-02 09:52:00,70.0,69.0,30.05,ESE,111,1.0,5.0,96,0.00,,,0.00,,2013-07-02 13:52:00,
2013-07-02 10:02:00,70.0,69.0,30.06,SE,144,1.0,5.0,96,0.00,,,0.00,,2013-07-02 14:02:00,
2013-07-02 10:43:00,73.0,71.0,30.06,SSE,160,4.0,7.0,94,0.00,,,0.00,,2013-07-02 14:43:00,
2013-07-02 10:53:00,73.0,71.0,30.06,SSE,160,4.0,7.0,94,0.00,,,0.00,,2013-07-02 14:53:00,
2013-07-02 11:02:00,74.0,72.0,30.06,SSW,207,5.0,11.0,93,0.00,,,0.00,,2013-07-02 15:02:00,
2013-07-02 11:12:00,74.0,72.0,30.06,SSW,207,5.0,11.0,93,0.00,,,0.00,,2013-07-02 15:12:00,
2013-07-02 11:33:00,76.0,72.0,30.06,SE,137,0.0,7.0,88,0.00,,,0.00,,2013-07-02 15:33:00,
2013-07-02 11:44:00,76.0,72.0,30.06,SE,137,0.0,7.0,88,0.00,,,0.00,,2013-07-02 15:44:00,
2013-07-02 11:53:00,76.0,72.0,30.06,SE,137,0.0,7.0,88,0.00,,,0.00,,2013-07-02 15:53:00,
2013-07-02 12:01:00,76.0,72.0,30.07,South,169,1.0,11.0,86,0.00,,,0.00,,2013-07-02 16:01:00,
2013-07-02 12:12:00,74.0,70.0,30.07,SE,135,2.0,10.0,88,0.00,,,0.00,,2013-07-02 16:12:00,
2013-07-02 12:33:00,74.0,72.0,30.07,SE,142,1.0,7.0,92,0.00,,,0.00,,2013-07-02 16:33:00,
2013-07-02 13:02:00,76.0,73.0,30.07,SSW,203,0.0,7.0,91,0.00,,,0.00,,2013-07-02 17:02:00,
2013-07-02 13:12:00,76.0,72.0,30.06,South,185,3.0,10.0,88,0.00,,,0.00,,2013-07-02 17:12:00,
2013-07-02 13:22:00,76.0,72.0,30.06,South,169,3.0,9.0,86,0.00,,,0.00,,2013-07-02 17:22:00,
2013-07-02 13:43:00,76.0,71.0,30.06,SE,135,1.0,9.0,84,0.00,,,0.00,,2013-07-02 17:43:00,
2013-07-02 14:02:00,76.0,70.0,30.06,SE,135,3.0,10.0,82,0.00,,,0.00,,2013-07-02 18:02:00,
2013-07-02 14:12:00,77.0,71.0,30.05,SE,134,5.0,13.0,82,0.00,,,0.00,,2013-07-02 18:12:00,
2013-07-02 14:23:00,76.0,70.0,30.05,SE,142,4.0,14.0,82,0.00,,,0.00,,2013-07-02 18:23:00,
2013-07-02 14:34:00,76.0,70.0,30.05,SE,142,4.0,14.0,82,0.00,,,0.00,,2013-07-02 18:34:00,
2013-07-02 14:43:00,77.0,71.0,30.05,SSE,167,5.0,15.0,81,0.00,,,0.00,,2013-07-02 18:43:00,
2013-07-02 14:53:00,77.0,71.0,30.05,SSE,167,5.0,15.0,81,0.00,,,0.00,,2013-07-02 18:53:00,
2013-07-02 15:01:00,77.0,70.0,30.05,ESE,121,5.0,13.0,80,0.00,,,0.00,,2013-07-02 19:01:00,
2013-07-02 15:34:00,75.0,69.0,30.05,SSE,163,5.0,11.0,83,0.00,,,0.00,,2013-07-02 19:34:00,
2013-07-02 15:43:00,76.0,70.0,30.05,SSW,192,6.0,12.0,82,0.00,,,0.00,,2013-07-02 19:43:00,
2013-07-02 15:53:00,76.0,70.0,30.05,SSW,192,6.0,12.0,82,0.00,,,0.00,,2013-07-02 19:53:00,
2013-07-02 16:02:00,76.0,70.0,30.04,SE,129,2.0,11.0,82,0.00,,,0.00,,2013-07-02 20:02:00,
2013-07-02 16:43:00,78.0,70.0,30.04,SSW,192,4.0,11.0,77,0.00,,,0.00,,2013-07-02 20:43:00,
2013-07-02 17:03:00,79.0,72.0,30.03,SSE,155,0.0,12.0,78,0.00,,,0.00,,2013-07-02 21:03:00,
2013-07-02 17:33:00,79.0,71.0,30.04,SE,135,4.0,11.0,77,0.00,,,0.00,,2013-07-02 21:33:00,
2013-07-02 17:44:00,79.0,72.0,30.04,SSE,148,0.0,10.0,78,0.00,,,0.00,,2013-07-02 21:44:00,
2013-07-02 17:52:00,79.0,72.0,30.04,SSE,148,0.0,10.0,78,0.00,,,0.00,,2013-07-02 21:52:00,
2013-07-02 18:01:00,79.0,72.0,30.03,SE,131,1.0,10.0,78,0.00,,,0.00,,2013-07-02 22:01:00,
2013-07-02 18:43:00,78.0,71.0,30.05,SSE,163,1.0,9.0,80,0.00,,,0.00,,2013-07-02 22:43:00,
2013-07-02 18:53:00,77.0,70.0,30.06,SSE,158,7.0,13.0,80,0.00,,,0.00,,2013-07-02 22:53:00,
2013-07-02 19:02:00,77.0,71.0,30.06,SE,138,0.0,8.0,81,0.00,,,0.00,,2013-07-02 23:02:00,
2013-07-02 19:12:00,77.0,71.0,30.06,South,169,1.0,7.0,81,0.00,,,0.00,,2013-07-02 23:12:00,
2013-07-02 19:22:00,77.0,71.0,30.07,SSE,161,1.0,8.0,81,0.00,,,0.00,,2013-07-02 23:22:00,
2013-07-02 19:33:00,76.0,70.0,30.07,South,178,3.0,7.0,81,0.00,,,0.00,,2013-07-02 23:33:00,
2013-07-02 19:44:00,76.0,70.0,30.07,South,179,1.0,6.0,82,0.00,,,0.00,,2013-07-02 23:44:00,
2013-07-02 19:52:00,76.0,70.0,30.08,South,188,0.0,5.0,83,0.00,,,0.00,,2013-07-02 23:52:00,
2013-07-02 20:01:00,76.0,71.0,30.08,South,188,0.0,4.0,84,0.00,,,0.00,,2013-07-03 00:01:00,
2013-07-02 20:11:00,76.0,71.0,30.08,South,182,0.0,7.0,84,0.00,,,0.00,,2013-07-03 00:11:00,
2013-07-02 20:33:00,77.0,70.0,30.10,West,272,6.0,15.0,79,0.00,,,0.00,,2013-07-03 00:33:00,
2013-07-02 20:44:00,76.0,69.0,30.10,WNW,294,6.0,13.0,79,0.00,,,0.00,,2013-07-03 00:44:00,
2013-07-02 20:52:00,76.0,69.0,30.10,WNW,294,6.0,13.0,79,0.00,,,0.00,,2013-07-03 00:52:00,
2013-07-02 21:01:00,75.0,71.0,30.11,WNW,287,7.0,17.0,87,0.00,,,0.00,,2013-07-03 01:01:00,
2013-07-02 21:42:00,73.0,71.0,30.11,WSW,244,0.0,6.0,94,0.00,,,0.00,,2013-07-03 01:42:00,
2013-07-02 21:57:00,73.0,71.0,30.11,WSW,244,0.0,3.0,95,0.00,,,0.00,,2013-07-03 01:57:00,
2013-07-02 22:14:00,73.0,72.0,30.11,WSW,244,1.0,5.0,96,0.00,,,0.00,,2013-07-03 02:14:00,
2013-07-02 22:39:00,73.0,72.0,30.12,WSW,242,0.0,2.0,97,0.00,,,0.00,,2013-07-03 02:39:00,
2013-07-02 23:07:00,74.0,73.0,30.11,WSW,242,0.0,0.0,97,0.00,,,0.00,,2013-07-03 03:07:00,
2013-07-02 23:36:00,74.0,73.0,30.11,WSW,242,0.0,0.0,97,0.00,,,0.00,,2013-07-03 03:36:00,
2013-07-02 23:57:00,74.0,73.0,30.11,WSW,242,0.0,0.0,98,0.00,,,0.00,,2013-07-03 03:57:00,